Time;durP1;ratioP1;P1;durP2;ratioP2;P2;SDS_P1;SDS_P2;PMS_P1;PMS_P2;Temp;Humidity;BMP_temperature;BMP_pressure;BME280_temperature;BME280_humidity;BME280_pressure;Samples;Min_cycle;Max_cycle;Signal;HPM_P1;HPM_P2
2022/09/26 00:01:42;;;;;;;;;12.40;11.00;;;;;21.53;46.34;98838.75;5055803;28;8860;-74
2022/09/26 00:04:15;;;;;;;;;12.60;11.60;;;;;21.68;46.03;98843.22;5091087;28;8865;-75
2022/09/26 00:06:48;;;;;;;;;9.40;8.80;;;;;21.67;46.26;98840.66;5007428;28;8831;-79
2022/09/26 00:09:18;;;;;;;;;9.00;9.00;;;;;21.53;46.65;98844.06;5007877;28;8874;-74
2022/09/26 00:11:47;;;;;;;;;10.20;10.20;;;;;21.66;46.53;98841.56;5007689;28;8860;-74
2022/09/26 00:14:18;;;;;;;;;9.20;8.80;;;;;21.57;47.18;98832.38;5007345;28;8852;-77
2022/09/26 00:16:47;;;;;;;;;9.00;8.80;;;;;21.54;47.34;98821.91;4991280;28;8876;-77
2022/09/26 00:19:15;;;;;;;;;10.20;8.80;;;;;21.65;47.39;98818.66;5007555;28;8856;-75
2022/09/26 00:21:45;;;;;;;;;10.20;9.20;;;;;21.66;47.55;98823.00;4999361;28;8912;-75
2022/09/26 00:24:13;;;;;;;;;9.20;9.20;;;;;21.67;47.43;98811.47;4995768;28;8860;-75
2022/09/26 00:26:44;;;;;;;;;11.60;10.60;;;;;21.73;47.40;98809.28;5026781;28;8970;-76
2022/09/26 00:29:13;;;;;;;;;11.60;11.60;;;;;21.62;47.76;98803.75;4994368;28;8852;-74
2022/09/26 00:31:44;;;;;;;;;6.60;6.20;;;;;21.43;48.57;98799.47;5045186;28;8854;-76
2022/09/26 00:34:13;;;;;;;;;8.20;8.00;;;;;21.23;49.29;98802.41;5029934;28;8862;-76
2022/09/26 00:36:42;;;;;;;;;7.80;7.80;;;;;21.36;49.02;98803.44;5047044;28;8924;-76
2022/09/26 00:39:13;;;;;;;;;9.60;9.40;;;;;21.43;48.65;98801.28;5069909;28;8930;-73
2022/09/26 00:41:43;;;;;;;;;11.80;11.00;;;;;21.51;48.48;98809.69;5055102;28;9028;-76
2022/09/26 00:44:48;;;;;;;;;8.00;8.00;;;;;21.48;48.69;98799.25;5070786;28;9645;-74
2022/09/26 00:47:42;;;;;;;;;11.20;11.20;;;;;21.18;49.78;98797.34;5069674;28;8944;-75
2022/09/26 00:50:19;;;;;;;;;11.60;9.80;;;;;21.14;50.03;98795.81;5007129;28;8980;-78
2022/09/26 00:52:54;;;;;;;;;9.40;8.00;;;;;21.25;49.85;98786.41;4990639;28;8996;-75
2022/09/26 00:55:29;;;;;;;;;10.40;10.40;;;;;21.21;49.80;98788.38;4990764;28;8951;-75
2022/09/26 00:58:03;;;;;;;;;10.60;10.00;;;;;21.16;50.28;98782.47;4989835;28;8862;-77
2022/09/26 01:00:32;;;;;;;;;10.40;9.80;;;;;21.17;50.38;98787.72;4958389;28;8919;-76
2022/09/26 01:03:03;;;;;;;;;8.60;8.40;;;;;21.02;51.04;98778.81;5006573;28;8866;-78
2022/09/26 01:05:34;;;;;;;;;8.00;8.00;;;;;21.06;51.13;98776.84;5006888;28;8963;-76
2022/09/26 01:08:05;;;;;;;;;10.00;10.00;;;;;20.90;51.72;98787.44;4974068;28;8854;-75
2022/09/26 01:10:35;;;;;;;;;8.00;8.00;;;;;20.76;52.37;98777.59;5007013;28;9632;-75
2022/09/26 01:13:07;;;;;;;;;8.20;8.20;;;;;20.80;52.20;98783.59;4957887;28;9016;-76
2022/09/26 01:15:36;;;;;;;;;9.00;8.20;;;;;20.72;52.82;98776.06;5007744;28;8858;-74
2022/09/26 01:18:06;;;;;;;;;6.60;6.60;;;;;20.76;52.81;98772.28;5006402;28;8858;-78
2022/09/26 01:20:48;;;;;;;;;6.40;6.00;;;;;20.71;53.09;98766.38;4973885;28;8891;-74
2022/09/26 01:24:00;;;;;;;;;9.20;8.00;;;;;20.74;53.41;98770.69;4990621;28;8862;-74
2022/09/26 01:26:54;;;;;;;;;9.00;9.00;;;;;20.50;54.18;98765.72;4953842;28;8896;-74
2022/09/26 01:30:03;;;;;;;;;7.80;7.60;;;;;20.49;54.49;98763.16;5007301;28;8877;-74
2022/09/26 01:33:13;;;;;;;;;8.80;8.80;;;;;20.64;54.20;98760.59;4986738;28;8880;-77
2022/09/26 01:36:07;;;;;;;;;7.80;7.80;;;;;20.63;54.23;98761.50;4973779;28;9049;-78
2022/09/26 01:38:46;;;;;;;;;8.00;8.00;;;;;20.59;54.77;98764.38;5006083;28;9608;-74
2022/09/26 01:41:32;;;;;;;;;7.20;7.00;;;;;20.43;55.39;98751.97;4989857;28;8854;-76
2022/09/26 01:44:14;;;;;;;;;9.60;9.40;;;;;20.49;55.36;98741.97;5006083;28;8886;-75
2022/09/26 01:46:50;;;;;;;;;8.40;7.40;;;;;20.64;54.87;98746.47;4963890;28;8860;-75
2022/09/26 01:49:26;;;;;;;;;7.20;7.20;;;;;20.57;55.35;98734.47;4954174;28;8914;-74
2022/09/26 01:52:04;;;;;;;;;9.60;9.40;;;;;20.58;55.40;98734.38;4986097;28;8885;-79
2022/09/26 01:54:37;;;;;;;;;7.60;7.60;;;;;20.54;55.70;98722.25;4997471;28;8944;-74
2022/09/26 01:57:14;;;;;;;;;5.40;5.40;;;;;20.48;55.92;98730.53;5030642;28;8890;-73
2022/09/26 01:59:48;;;;;;;;;8.00;7.40;;;;;20.23;56.79;98725.69;4999675;28;8898;-74
2022/09/26 02:02:25;;;;;;;;;6.00;6.00;;;;;20.28;56.86;98720.16;5062110;28;8846;-74
2022/09/26 02:05:00;;;;;;;;;6.60;6.40;;;;;20.29;56.96;98722.72;5053539;28;8866;-75
2022/09/26 02:07:34;;;;;;;;;5.80;5.60;;;;;20.49;56.31;98721.66;5086944;28;9075;-75
2022/09/26 02:10:08;;;;;;;;;6.60;6.60;;;;;20.42;56.41;98725.56;5053704;28;9678;-76
2022/09/26 02:12:44;;;;;;;;;7.80;7.20;;;;;20.41;56.55;98730.00;5087174;28;8922;-78
2022/09/26 02:15:18;;;;;;;;;6.00;6.00;;;;;20.40;56.74;98740.69;5053565;28;8882;-73
2022/09/26 02:17:54;;;;;;;;;6.20;6.20;;;;;20.44;56.73;98729.84;5069128;28;8873;-75
2022/09/26 02:20:30;;;;;;;;;7.00;7.00;;;;;20.51;56.59;98733.03;5052743;28;8854;-74
2022/09/26 02:23:02;;;;;;;;;6.60;6.60;;;;;20.48;56.60;98730.53;5052266;28;8918;-77
2022/09/26 02:25:32;;;;;;;;;7.40;7.40;;;;;20.43;56.84;98733.44;5050099;28;8925;-76
2022/09/26 02:28:01;;;;;;;;;7.60;6.40;;;;;20.48;56.82;98738.47;5066409;28;8836;-76
2022/09/26 02:30:30;;;;;;;;;7.00;7.00;;;;;20.49;56.87;98737.53;5049828;28;8840;-73
2022/09/26 02:33:02;;;;;;;;;6.40;6.40;;;;;20.51;56.89;98733.03;5044546;28;8845;-74
2022/09/26 02:38:19;;;;;;;;;5.00;5.00;;;;;20.30;57.88;98715.63;5069936;28;8974;-74
2022/09/26 02:41:06;;;;;;;;;6.80;6.80;;;;;20.32;57.78;98711.09;5082061;28;8831;-74
2022/09/26 02:43:56;;;;;;;;;8.00;7.80;;;;;20.27;58.16;98710.50;5066071;28;9006;-76
2022/09/26 02:47:00;;;;;;;;;7.60;7.00;;;;;20.26;58.20;98706.97;5049596;28;8844;-75
2022/09/26 02:50:07;;;;;;;;;6.60;6.60;;;;;20.33;58.09;98704.88;5066057;28;8840;-75
2022/09/26 02:52:51;;;;;;;;;7.20;7.20;;;;;20.24;58.41;98700.91;4995680;28;8860;-76
2022/09/26 02:55:39;;;;;;;;;7.80;6.80;;;;;20.26;58.73;98699.03;4998409;28;10120;-74
2022/09/26 02:58:18;;;;;;;;;8.00;8.00;;;;;20.36;58.29;98700.28;5010401;28;8856;-76
2022/09/26 03:00:59;;;;;;;;;6.60;6.00;;;;;20.33;58.67;98707.53;5012330;28;8883;-73
2022/09/26 03:03:35;;;;;;;;;6.80;6.80;;;;;20.11;59.49;98702.50;4995980;28;8882;-74
2022/09/26 03:06:11;;;;;;;;;6.00;5.60;;;;;20.10;59.34;98695.53;5011736;28;8863;-77
2022/09/26 03:08:44;;;;;;;;;8.20;7.60;;;;;20.14;59.33;98700.56;5012071;28;8852;-74
2022/09/26 03:11:22;;;;;;;;;7.20;6.80;;;;;20.18;59.23;98694.16;5011930;28;8886;-77
2022/09/26 03:13:54;;;;;;;;;7.40;7.40;;;;;20.06;59.76;98689.53;5013091;28;8921;-78
2022/09/26 03:16:28;;;;;;;;;7.60;7.60;;;;;19.94;60.34;98692.81;5011740;28;8889;-75
2022/09/26 03:19:03;;;;;;;;;6.00;6.00;;;;;20.04;59.87;98681.69;4992950;28;8862;-74
2022/09/26 03:21:34;;;;;;;;;8.40;8.20;;;;;20.14;59.52;98682.03;4961002;28;9774;-76
2022/09/26 03:24:06;;;;;;;;;18.60;17.80;;;;;20.13;59.44;98669.75;4992436;28;9637;-75
2022/09/26 03:26:35;;;;;;;;;7.00;7.00;;;;;20.17;59.54;98679.22;4992216;28;8854;-75
2022/09/26 03:29:04;;;;;;;;;6.00;6.00;;;;;20.01;60.03;98676.53;5012173;28;8903;-74
2022/09/26 03:31:36;;;;;;;;;7.00;7.00;;;;;20.16;59.44;98682.81;5041923;28;9628;-75
2022/09/26 03:34:07;;;;;;;;;11.20;11.20;;;;;20.04;59.72;98673.75;5067954;28;8851;-75
2022/09/26 03:36:39;;;;;;;;;5.00;5.00;;;;;20.03;59.80;98676.47;5034929;28;8889;-73
2022/09/26 03:39:10;;;;;;;;;6.40;5.40;;;;;20.17;59.43;98673.06;5051720;28;8878;-76
2022/09/26 03:41:58;;;;;;;;;7.20;7.00;;;;;20.16;59.47;98672.22;5069031;28;8830;-75
2022/09/26 03:44:29;;;;;;;;;6.80;6.80;;;;;20.22;59.37;98665.72;5052494;28;8935;-75
2022/09/26 03:47:14;;;;;;;;;8.80;6.00;;;;;20.29;59.25;98663.63;5068092;28;8867;-76
2022/09/26 03:49:45;;;;;;;;;6.00;6.00;;;;;20.24;59.11;98663.84;5056133;28;8836;-76
2022/09/26 03:52:16;;;;;;;;;6.60;6.00;;;;;20.29;58.93;98653.03;5018528;28;8840;-75
2022/09/26 03:54:45;;;;;;;;;7.80;7.80;;;;;20.20;59.32;98646.44;5067770;28;8851;-75
2022/09/26 03:57:16;;;;;;;;;6.80;6.00;;;;;20.18;59.54;98641.22;5065914;28;8846;-74
2022/09/26 03:59:54;;;;;;;;;5.60;5.60;;;;;20.43;58.64;98635.44;5087861;28;8935;-75
2022/09/26 04:02:24;;;;;;;;;5.60;5.20;;;;;20.39;58.70;98625.09;5087092;28;8860;-75
2022/09/26 04:05:09;;;;;;;;;7.80;7.80;;;;;20.30;59.08;98629.09;5055772;28;8865;-74
2022/09/26 04:07:39;;;;;;;;;6.40;6.00;;;;;20.21;59.10;98614.59;5071034;28;8861;-75
2022/09/26 04:10:10;;;;;;;;;4.80;4.80;;;;;20.16;59.31;98610.47;5087706;28;8960;-75
2022/09/26 04:12:40;;;;;;;;;5.20;5.20;;;;;20.31;58.74;98606.97;5071217;28;8846;-75
2022/09/26 04:15:09;;;;;;;;;5.80;5.40;;;;;20.40;58.49;98613.56;5070482;28;8897;-74
2022/09/26 04:17:39;;;;;;;;;8.00;6.60;;;;;20.40;58.57;98601.19;5071038;28;9583;-74
2022/09/26 04:20:08;;;;;;;;;5.60;5.00;;;;;20.34;58.54;98606.81;5071597;28;8927;-75
2022/09/26 04:22:40;;;;;;;;;6.00;6.00;;;;;20.36;58.49;98598.78;5069270;28;8850;-77
2022/09/26 04:25:10;;;;;;;;;8.20;6.60;;;;;20.31;58.57;98609.63;5052068;28;8863;-75
2022/09/26 04:27:39;;;;;;;;;7.00;7.00;;;;;20.32;58.52;98611.34;5051863;28;8883;-74
2022/09/26 04:30:10;;;;;;;;;9.80;9.80;;;;;20.31;58.67;98606.13;5051468;28;8845;-75
2022/09/26 04:32:46;;;;;;;;;5.80;5.80;;;;;20.32;58.61;98595.47;5072219;28;8854;-74
2022/09/26 04:35:21;;;;;;;;;6.60;6.20;;;;;20.31;58.61;98598.19;5089881;28;8850;-78
2022/09/26 04:37:51;;;;;;;;;5.60;5.60;;;;;20.35;58.58;98605.03;5055215;28;8834;-76
2022/09/26 04:40:21;;;;;;;;;6.00;6.00;;;;;20.35;58.56;98615.63;5051155;28;8886;-75
2022/09/26 04:43:11;;;;;;;;;8.20;6.80;;;;;20.31;58.79;98616.72;5051407;28;8859;-75
2022/09/26 04:45:41;;;;;;;;;5.20;5.20;;;;;20.58;58.11;98622.25;5017669;28;8872;-75
2022/09/26 04:48:10;;;;;;;;;7.60;7.20;;;;;20.50;58.33;98614.75;5051470;28;8852;-75
2022/09/26 04:50:45;;;;;;;;;7.00;7.00;;;;;20.57;58.12;98605.53;5078626;28;8853;-74
2022/09/26 04:53:15;;;;;;;;;5.40;5.40;;;;;20.38;58.76;98591.63;5029848;28;8858;-73
2022/09/26 04:55:55;;;;;;;;;5.80;5.80;;;;;20.24;59.40;98601.19;5030599;28;8908;-77
2022/09/26 04:58:24;;;;;;;;;5.20;4.60;;;;;20.10;60.11;98611.69;5046471;28;8864;-75
2022/09/26 05:00:52;;;;;;;;;7.00;6.60;;;;;20.10;60.20;98621.41;5026336;28;8882;-74
2022/09/26 05:03:35;;;;;;;;;7.20;6.20;;;;;20.09;60.50;98611.75;5009896;28;8976;-76
2022/09/26 05:06:07;;;;;;;;;6.20;6.20;;;;;20.09;60.43;98612.59;5010006;28;8957;-75
2022/09/26 05:08:39;;;;;;;;;4.80;4.80;;;;;20.26;59.99;98611.69;5010008;28;8856;-75
2022/09/26 05:11:09;;;;;;;;;6.40;6.40;;;;;20.16;60.36;98611.34;5026383;28;8994;-76
2022/09/26 05:13:38;;;;;;;;;6.20;6.20;;;;;20.35;59.87;98620.91;5044317;28;8869;-80
2022/09/26 05:16:08;;;;;;;;;5.00;5.00;;;;;20.43;59.45;98611.63;5009961;28;8910;-76
2022/09/26 05:18:40;;;;;;;;;6.00;6.00;;;;;20.20;60.37;98612.03;4993425;28;8910;-77
2022/09/26 05:21:09;;;;;;;;;8.40;6.40;;;;;20.23;60.29;98606.56;5009563;28;8855;-76
2022/09/26 05:26:28;;;;;;;;;7.80;7.80;;;;;20.31;60.09;98611.44;5034589;28;8840;-75
2022/09/26 05:29:00;;;;;;;;;7.60;7.60;;;;;20.29;60.23;98611.50;5066079;28;8843;-74
2022/09/26 05:32:07;;;;;;;;;7.40;6.20;;;;;20.48;59.54;98611.34;5045748;28;8893;-77
2022/09/26 05:34:38;;;;;;;;;6.00;6.00;;;;;20.60;59.04;98597.44;5045606;28;8904;-76
2022/09/26 05:37:08;;;;;;;;;5.60;5.60;;;;;20.48;59.52;98595.44;5042018;28;8848;-77
2022/09/26 05:42:24;;;;;;;;;6.20;6.20;;;;;20.85;58.40;98604.00;5008346;28;9833;-77
2022/09/26 05:44:53;;;;;;;;;6.20;6.20;;;;;20.74;58.67;98603.75;4992317;28;8879;-73
2022/09/26 05:47:22;;;;;;;;;8.20;8.20;;;;;20.77;58.80;98600.91;5008283;28;8884;-78
2022/09/26 05:49:50;;;;;;;;;8.00;5.80;;;;;20.71;58.96;98598.63;5008781;28;8856;-75
2022/09/26 05:52:21;;;;;;;;;6.80;5.80;;;;;20.87;58.47;98598.56;5022236;28;8875;-76
2022/09/26 05:54:53;;;;;;;;;7.20;7.00;;;;;20.70;59.07;98611.03;5007255;28;8887;-77
2022/09/26 05:57:50;;;;;;;;;9.60;9.60;;;;;20.79;59.06;98604.31;5012405;28;8848;-74
2022/09/26 06:00:20;;;;;;;;;6.60;6.60;;;;;20.83;59.03;98593.47;4992704;28;8872;-77
2022/09/26 06:02:54;;;;;;;;;5.40;5.40;;;;;20.86;58.83;98581.84;5025846;28;8957;-76
2022/09/26 06:05:37;;;;;;;;;6.40;5.60;;;;;20.67;59.98;98575.91;5010586;28;9049;-75
2022/09/26 06:08:16;;;;;;;;;5.00;4.80;;;;;20.94;58.81;98576.06;5021320;28;9801;-76
2022/09/26 06:11:06;;;;;;;;;5.20;5.20;;;;;20.88;59.35;98582.59;5071265;28;9061;-76
2022/09/26 06:13:37;;;;;;;;;5.00;4.80;;;;;21.28;57.93;98584.69;5070350;28;8857;-75
2022/09/26 06:16:08;;;;;;;;;8.20;6.60;;;;;21.33;57.88;98583.47;5069991;28;8880;-77
2022/09/26 06:18:38;;;;;;;;;4.00;4.00;;;;;21.10;58.47;98574.25;5069716;28;8976;-74
2022/09/26 06:21:08;;;;;;;;;7.60;7.60;;;;;21.03;59.01;98596.75;5048707;28;8925;-75
2022/09/26 06:23:37;;;;;;;;;10.00;10.00;;;;;21.05;58.98;98586.06;5044580;28;9761;-76
2022/09/26 06:26:11;;;;;;;;;4.60;4.00;;;;;21.10;58.92;98582.19;5044135;28;8845;-74
2022/09/26 06:28:39;;;;;;;;;1.00;1.00;;;;;21.11;58.81;98583.03;5007844;28;8863;-75
2022/09/26 06:31:10;;;;;;;;;6.00;5.00;;;;;21.16;58.79;98581.81;4959335;28;8836;-75
2022/09/26 06:34:12;;;;;;;;;4.80;4.80;;;;;21.29;58.59;98589.91;4965922;28;8899;-78
2022/09/26 06:36:49;;;;;;;;;3.60;3.60;;;;;21.11;59.07;98591.00;4934829;28;8844;-77
2022/09/26 06:39:17;;;;;;;;;6.00;6.00;;;;;21.26;58.70;98595.38;4966091;28;8998;-77
2022/09/26 06:41:49;;;;;;;;;4.80;4.20;;;;;21.23;58.78;98588.47;4967156;28;8884;-75
2022/09/26 06:44:50;;;;;;;;;3.00;3.00;;;;;21.30;58.47;98566.88;4943978;29;8912;-76
2022/09/26 06:47:24;;;;;;;;;5.60;5.00;;;;;21.31;58.63;98558.84;4945654;29;8866;-78
2022/09/26 06:50:08;;;;;;;;;5.20;5.00;;;;;21.42;58.37;98553.72;4921898;29;9591;-74
2022/09/26 06:52:39;;;;;;;;;4.00;4.00;;;;;21.41;58.21;98559.13;4910932;29;8884;-75
2022/09/26 06:55:09;;;;;;;;;4.00;4.00;;;;;21.47;58.29;98571.19;4878924;29;8959;-75
2022/09/26 06:57:41;;;;;;;;;4.00;3.00;;;;;21.47;57.95;98572.03;4910859;29;8881;-72
2022/09/26 07:00:12;;;;;;;;;4.00;4.00;;;;;21.53;58.02;98582.31;4909951;29;9071;-75
2022/09/26 07:03:00;;;;;;;;;7.20;4.60;;;;;21.57;57.97;98575.00;4926083;29;9012;-74
2022/09/26 07:05:47;;;;;;;;;5.40;5.20;;;;;21.82;57.10;98576.16;4927996;29;9643;-76
2022/09/26 07:08:16;;;;;;;;;4.00;4.00;;;;;21.95;57.05;98588.56;4911303;29;8881;-75
2022/09/26 07:10:46;;;;;;;;;4.00;3.60;;;;;21.79;57.05;98596.59;4960443;28;8877;-75
2022/09/26 07:13:24;;;;;;;;;9.60;9.60;;;;;22.06;56.42;98587.00;4956792;28;8904;-75
2022/09/26 07:15:57;;;;;;;;;5.60;2.60;;;;;22.32;55.89;98580.91;4984323;28;8897;-75
2022/09/26 07:18:38;;;;;;;;;4.80;4.80;;;;;22.51;55.02;98574.41;4985048;28;8991;-75
2022/09/26 07:21:20;;;;;;;;;6.80;6.80;;;;;22.41;55.46;98581.28;5044424;28;8941;-77
2022/09/26 07:23:51;;;;;;;;;3.60;3.60;;;;;22.42;55.42;98585.63;5022127;28;8848;-74
2022/09/26 07:26:21;;;;;;;;;3.60;3.20;;;;;22.43;55.04;98588.19;4996463;28;8856;-75
2022/09/26 07:28:51;;;;;;;;;6.40;6.20;;;;;22.48;55.12;98583.44;4959438;28;8870;-79
2022/09/26 07:31:25;;;;;;;;;7.00;6.20;;;;;22.40;55.20;98569.81;5004175;28;8906;-75
2022/09/26 07:34:07;;;;;;;;;4.00;4.00;;;;;22.46;55.15;98573.88;5000998;28;8872;-75
2022/09/26 07:36:39;;;;;;;;;5.20;5.20;;;;;22.66;55.04;98575.22;5007724;28;8880;-75
2022/09/26 07:39:09;;;;;;;;;5.80;5.00;;;;;22.56;54.88;98581.13;5027114;28;8968;-75
2022/09/26 07:41:38;;;;;;;;;6.00;6.00;;;;;22.62;54.73;98587.00;5010636;28;8860;-75
2022/09/26 07:44:08;;;;;;;;;6.40;6.40;;;;;22.62;54.78;98577.22;5010738;28;8990;-75
2022/09/26 07:52:48;;;;;;;;;5.00;5.00;;;;;22.84;54.53;98579.31;4994740;28;8852;-73
2022/09/26 07:55:25;;;;;;;;;5.80;5.80;;;;;23.04;54.32;98579.81;5026180;28;9090;-74
2022/09/26 07:58:26;;;;;;;;;3.20;2.80;;;;;22.90;54.75;98570.94;4986960;28;8856;-75
2022/09/26 08:01:24;;;;;;;;;6.00;6.00;;;;;22.86;55.11;98571.25;4992316;28;8857;-75
2022/09/26 08:03:59;;;;;;;;;4.80;4.80;;;;;22.80;55.43;98574.28;5046459;28;8841;-72
2022/09/26 08:06:35;;;;;;;;;7.00;7.00;;;;;22.83;55.61;98588.25;5027425;28;9003;-73
2022/09/26 08:09:04;;;;;;;;;5.80;5.80;;;;;22.83;56.05;98587.41;5046565;28;8872;-73
2022/09/26 08:11:52;;;;;;;;;7.00;6.60;;;;;22.94;55.57;98598.16;5029442;28;8887;-76
2022/09/26 08:14:36;;;;;;;;;4.40;4.40;;;;;22.97;55.44;98606.81;5026882;28;8844;-73
2022/09/26 08:17:31;;;;;;;;;7.60;6.60;;;;;22.90;55.56;98596.69;5033916;28;8849;-71
2022/09/26 08:20:00;;;;;;;;;5.80;5.80;;;;;22.76;55.76;98597.59;5047342;28;8979;-74
2022/09/26 08:22:29;;;;;;;;;6.60;6.60;;;;;22.71;55.98;98592.56;5011766;28;8954;-75
2022/09/26 08:24:59;;;;;;;;;6.00;6.00;;;;;23.09;55.14;98601.66;5030052;28;9710;-75
2022/09/26 08:28:06;;;;;;;;;6.20;5.00;;;;;23.08;55.07;98600.81;5026771;28;8871;-73
2022/09/26 08:30:35;;;;;;;;;6.60;5.80;;;;;23.07;54.92;98600.91;5010431;28;8852;-75
2022/09/26 08:33:07;;;;;;;;;5.80;5.80;;;;;23.20;55.02;98600.94;5010686;28;8856;-74
2022/09/26 08:35:38;;;;;;;;;5.00;5.00;;;;;23.13;55.32;98597.81;5030699;28;8876;-75
2022/09/26 08:38:16;;;;;;;;;9.40;8.40;;;;;23.13;55.50;98598.66;5030306;28;8858;-73
2022/09/26 08:40:55;;;;;;;;;8.00;8.00;;;;;23.44;54.61;98609.03;5047354;28;8854;-75
2022/09/26 08:43:56;;;;;;;;;11.80;10.80;;;;;23.58;54.46;98613.41;5047239;28;8846;-73
2022/09/26 08:46:55;;;;;;;;;7.40;7.40;;;;;23.53;54.64;98606.59;5047025;28;8854;-72
2022/09/26 08:50:14;;;;;;;;;6.20;6.20;;;;;23.77;53.97;98602.34;5006278;28;8908;-72
2022/09/26 08:52:51;;;;;;;;;7.40;7.40;;;;;23.77;53.83;98597.88;5006861;28;9293;-73
2022/09/26 08:55:25;;;;;;;;;9.20;8.00;;;;;23.78;53.49;98593.38;5006919;28;8920;-73
2022/09/26 08:57:58;;;;;;;;;8.60;8.60;;;;;23.98;53.23;98576.88;5005999;28;8858;-74
2022/09/26 09:00:30;;;;;;;;;10.80;9.80;;;;;23.92;53.06;98572.00;4971301;28;8887;-74
2022/09/26 09:03:16;;;;;;;;;8.60;7.80;;;;;24.03;52.82;98571.25;4990413;28;8872;-75
2022/09/26 09:05:50;;;;;;;;;8.00;8.00;;;;;24.48;51.48;98568.84;4990201;28;8858;-74
2022/09/26 09:08:22;;;;;;;;;8.60;7.80;;;;;24.79;50.88;98572.78;4975066;28;8858;-74
2022/09/26 09:11:17;;;;;;;;;7.40;7.40;;;;;25.26;50.46;98581.72;4990151;28;8916;-72
2022/09/26 09:14:02;;;;;;;;;7.60;7.60;;;;;25.27;49.04;98569.22;4990140;28;9022;-71
2022/09/26 09:17:03;;;;;;;;;9.60;9.40;;;;;25.34;48.63;98570.44;5006218;28;8862;-72
2022/09/26 09:20:08;;;;;;;;;6.40;6.40;;;;;24.79;49.53;98575.44;4968457;28;8865;-73
2022/09/26 09:23:11;;;;;;;;;8.40;7.20;;;;;25.14;48.57;98577.28;4946410;28;8888;-74
2022/09/26 09:25:50;;;;;;;;;7.00;6.20;;;;;25.39;47.71;98578.09;4970775;28;8861;-73
2022/09/26 09:28:37;;;;;;;;;6.80;5.80;;;;;25.00;48.76;98575.66;4986797;28;8860;-74
2022/09/26 09:31:11;;;;;;;;;9.60;8.20;;;;;25.07;48.85;98576.06;4970473;28;9066;-74
2022/09/26 09:33:56;;;;;;;;;7.00;7.00;;;;;24.95;48.89;98579.63;5005868;28;9009;-77
2022/09/26 09:36:42;;;;;;;;;6.00;6.00;;;;;24.89;49.20;98570.28;4990596;28;9601;-76
2022/09/26 09:39:37;;;;;;;;;10.40;10.40;;;;;24.88;49.42;98564.09;4992376;28;8874;-74
2022/09/26 09:42:26;;;;;;;;;8.80;7.40;;;;;25.02;49.07;98563.03;4985879;28;8903;-78
2022/09/26 09:45:00;;;;;;;;;10.00;9.40;;;;;25.24;48.39;98556.97;4977938;28;8947;-69
2022/09/26 09:47:29;;;;;;;;;12.00;12.00;;;;;25.33;48.24;98546.53;4991099;28;9009;-71
2022/09/26 09:49:59;;;;;;;;;6.00;6.00;;;;;25.13;48.60;98545.38;5005387;28;8912;-68
2022/09/26 09:52:42;;;;;;;;;9.00;7.80;;;;;24.80;49.51;98558.50;5005356;28;8951;-76
2022/09/26 09:55:31;;;;;;;;;6.40;6.40;;;;;24.92;49.29;98554.06;4998538;28;8995;-73
2022/09/26 09:58:16;;;;;;;;;13.20;10.60;;;;;25.05;49.62;98545.97;5047844;28;8929;-74
2022/09/26 10:00:51;;;;;;;;;9.00;9.00;;;;;25.15;49.60;98549.63;5012733;28;8864;-75
2022/09/26 10:03:36;;;;;;;;;8.20;8.20;;;;;25.18;49.23;98552.06;5060717;28;8857;-73
2022/09/26 10:06:08;;;;;;;;;10.00;9.20;;;;;25.13;49.72;98554.22;5048102;28;8983;-76
2022/09/26 10:09:02;;;;;;;;;9.40;9.40;;;;;25.05;49.66;98561.97;5066107;28;8848;-73
2022/09/26 10:12:20;;;;;;;;;8.00;8.00;;;;;25.18;49.67;98567.22;5067889;28;8860;-75
2022/09/26 10:15:27;;;;;;;;;9.40;9.20;;;;;25.25;49.87;98563.97;5007211;28;8983;-74
2022/09/26 10:18:13;;;;;;;;;11.00;9.00;;;;;25.72;48.69;98571.09;5023800;28;8900;-75
2022/09/26 10:21:14;;;;;;;;;9.80;9.00;;;;;25.62;49.29;98562.97;5008015;28;8865;-72
2022/09/26 10:23:47;;;;;;;;;17.40;15.80;;;;;25.94;48.95;98555.09;5024052;28;8854;-72
2022/09/26 10:26:39;;;;;;;;;11.20;11.00;;;;;26.33;48.16;98562.69;4978678;28;8836;-73
2022/09/26 10:29:23;;;;;;;;;11.40;11.00;;;;;26.12;48.16;98557.25;4988498;28;9796;-73
2022/09/26 10:31:59;;;;;;;;;10.60;9.60;;;;;26.22;47.86;98553.72;4986283;28;8852;-73
2022/09/26 10:34:31;;;;;;;;;9.40;9.20;;;;;26.47;47.52;98545.53;5004016;28;8856;-73
2022/09/26 10:37:21;;;;;;;;;7.60;7.60;;;;;26.89;46.46;98542.97;4987911;28;8847;-74
2022/09/26 10:42:45;;;;;;;;;9.00;9.00;;;;;26.63;46.67;98546.84;4986885;28;9684;-72
2022/09/26 10:45:20;;;;;;;;;10.60;8.60;;;;;26.82;46.63;98550.63;4988852;28;8859;-73
2022/09/26 10:47:56;;;;;;;;;13.20;13.20;;;;;26.89;46.63;98551.00;5027949;28;8942;-75
2022/09/26 10:50:50;;;;;;;;;10.60;10.60;;;;;27.10;46.06;98546.47;4984695;28;8970;-74
2022/09/26 10:53:22;;;;;;;;;13.40;13.40;;;;;27.14;46.16;98545.25;4976864;28;8885;-74
2022/09/26 10:55:56;;;;;;;;;10.00;10.00;;;;;27.49;45.48;98544.09;4984639;28;8956;-76
2022/09/26 10:58:28;;;;;;;;;11.20;11.20;;;;;27.80;44.75;98536.88;4981815;28;8886;-71
2022/09/26 11:01:06;;;;;;;;;6.60;6.60;;;;;27.78;44.26;98529.97;4984458;28;8870;-74
2022/09/26 11:03:44;;;;;;;;;9.60;8.60;;;;;28.10;44.01;98531.66;4976763;28;8871;-77
2022/09/26 11:06:27;;;;;;;;;8.40;8.00;;;;;28.50;43.30;98522.69;4965689;28;8965;-74
2022/09/26 11:09:19;;;;;;;;;12.00;10.80;;;;;28.81;41.91;98527.94;4977957;28;8859;-75
2022/09/26 11:12:25;;;;;;;;;11.00;9.60;;;;;29.02;41.79;98528.66;4967107;28;8863;-74
2022/09/26 11:14:59;;;;;;;;;6.60;6.60;;;;;29.08;40.57;98525.38;4950412;28;9162;-73
2022/09/26 11:17:43;;;;;;;;;4.20;4.20;;;;;29.14;40.61;98529.34;4968326;28;8892;-73
2022/09/26 11:20:27;;;;;;;;;10.00;9.00;;;;;29.06;40.10;98530.03;4953150;28;8883;-73
2022/09/26 11:23:07;;;;;;;;;9.20;9.20;;;;;29.04;39.93;98521.28;4952809;28;9768;-74
2022/09/26 11:25:50;;;;;;;;;8.00;8.00;;;;;29.24;40.00;98518.59;4984999;28;8973;-73
2022/09/26 11:28:31;;;;;;;;;9.80;9.80;;;;;29.32;39.57;98513.31;5025046;28;8881;-74
2022/09/26 11:31:27;;;;;;;;;1.00;1.00;;;;;29.18;39.52;98506.59;5045326;28;8890;-75
2022/09/26 11:34:25;;;;;;;;;11.60;10.80;;;;;29.43;39.68;98499.72;5045877;28;8886;-74
2022/09/26 11:37:20;;;;;;;;;10.60;10.20;;;;;29.62;39.85;98500.66;5035284;28;8885;-74
2022/09/26 11:40:04;;;;;;;;;10.60;10.40;;;;;29.73;38.87;98487.88;5046570;28;8961;-76
2022/09/26 11:42:53;;;;;;;;;8.00;8.00;;;;;29.22;38.94;98489.19;5053496;28;8836;-73
2022/09/26 11:45:34;;;;;;;;;10.60;10.60;;;;;29.10;39.58;98487.66;4999427;28;8885;-75
2022/09/26 11:49:25;;;;;;;;;16.80;13.80;;;;;29.44;39.64;98493.38;4949292;28;8923;-77
2022/09/26 11:52:34;;;;;;;;;10.80;9.60;;;;;29.34;40.37;98484.50;4872905;29;8865;-75
2022/09/26 11:55:15;;;;;;;;;11.40;11.00;;;;;29.36;40.57;98485.22;4892559;29;8868;-74
2022/09/26 11:57:55;;;;;;;;;19.00;18.80;;;;;29.39;40.68;98487.59;4892216;29;8881;-72
2022/09/26 12:00:26;;;;;;;;;15.40;14.20;;;;;29.28;40.67;98485.06;4876777;29;8897;-72
2022/09/26 12:03:34;;;;;;;;;14.00;13.20;;;;;29.44;40.20;98474.56;4875056;29;8921;-73
2022/09/26 12:06:30;;;;;;;;;11.00;10.00;;;;;29.46;40.76;98477.94;4769552;30;8910;-74
2022/09/26 12:09:34;;;;;;;;;10.20;10.20;;;;;29.44;40.85;98482.63;4789810;29;9687;-75
2022/09/26 12:12:14;;;;;;;;;11.60;10.40;;;;;29.33;41.55;98478.28;4799915;29;8863;-77
2022/09/26 12:15:01;;;;;;;;;12.00;11.20;;;;;29.29;41.77;98470.66;4799946;29;8868;-75
2022/09/26 12:17:44;;;;;;;;;11.00;10.00;;;;;29.29;41.41;98468.81;4788112;29;8849;-74
2022/09/26 12:20:23;;;;;;;;;13.40;11.60;;;;;29.20;42.19;98467.00;4802964;29;8912;-75
2022/09/26 12:23:02;;;;;;;;;13.80;13.20;;;;;29.23;42.02;98453.31;4848880;29;8986;-77
2022/09/26 12:25:43;;;;;;;;;9.20;9.20;;;;;29.20;42.90;98456.28;4906409;29;8887;-75
2022/09/26 12:28:23;;;;;;;;;11.80;11.80;;;;;29.10;43.55;98458.13;4928093;29;8863;-74
2022/09/26 12:31:06;;;;;;;;;11.60;11.60;;;;;29.09;43.49;98451.91;4929520;29;9641;-73
2022/09/26 12:33:57;;;;;;;;;14.80;14.80;;;;;29.08;43.81;98455.56;4909812;29;8905;-74
2022/09/26 12:36:46;;;;;;;;;11.20;11.20;;;;;29.08;44.66;98452.06;4863535;29;8881;-73
2022/09/26 12:39:30;;;;;;;;;14.60;13.40;;;;;28.99;45.01;98453.75;4882076;29;8877;-76
2022/09/26 12:42:10;;;;;;;;;15.20;15.00;;;;;28.92;45.34;98464.25;4915412;28;8873;-75
2022/09/26 12:45:03;;;;;;;;;13.80;13.80;;;;;28.89;45.79;98456.47;5046677;28;8839;-74
2022/09/26 12:47:56;;;;;;;;;13.40;13.40;;;;;28.68;45.64;98453.97;5012906;28;8846;-71
2022/09/26 12:50:36;;;;;;;;;13.40;13.40;;;;;28.46;45.51;98451.53;5045893;28;8866;-70
2022/09/26 12:53:22;;;;;;;;;14.80;13.00;;;;;28.38;46.13;98446.88;5046720;28;9722;-71